createdAt,value
2018-05-23T00:01:38.460Z,101884.91
2018-05-23T00:04:05.320Z,101893.72
2018-05-23T00:06:32.357Z,101895.51
2018-05-23T00:08:59.128Z,101885.98
2018-05-23T00:11:26.016Z,101889.17
2018-05-23T00:13:52.794Z,101890.30
2018-05-23T00:16:19.561Z,101899.86
2018-05-23T00:18:47.331Z,101901.77
2018-05-23T00:21:14.894Z,101894.23
2018-05-23T00:23:41.721Z,101896.17
2018-05-23T00:26:09.365Z,101899.46
2018-05-23T00:28:36.148Z,101903.80
2018-05-23T00:31:03.643Z,101905.96
2018-05-23T00:33:30.459Z,101906.74
2018-05-23T00:35:57.569Z,101909.02
2018-05-23T00:38:24.357Z,101905.45
2018-05-23T00:40:51.132Z,101914.14
2018-05-23T00:43:24.588Z,101913.24
2018-05-23T00:45:51.361Z,101913.22
2018-05-23T00:48:18.932Z,101917.83
2018-05-23T00:50:46.089Z,101924.52
2018-05-23T00:53:12.860Z,101923.98
2018-05-23T00:55:40.396Z,101918.44
2018-05-23T00:58:07.582Z,101920.09
2018-05-23T01:00:34.402Z,101927.43
2018-05-23T01:03:01.190Z,101925.83
2018-05-23T01:05:28.017Z,101924.03
2018-05-23T01:07:55.541Z,101925.95
2018-05-23T01:10:22.345Z,101931.13
2018-05-23T01:12:49.219Z,101930.66
2018-05-23T01:15:16.091Z,101930.77
2018-05-23T01:17:43.617Z,101931.75
2018-05-23T01:20:10.416Z,101935.58
2018-05-23T01:22:37.277Z,101936.05
2018-05-23T01:25:04.162Z,101936.32
2018-05-23T01:27:30.976Z,101939.72
2018-05-23T01:29:57.793Z,101931.06
2018-05-23T01:32:24.600Z,101934.19
2018-05-23T01:34:51.567Z,101933.56
2018-05-23T01:37:18.391Z,101940.25
2018-05-23T01:39:45.167Z,101940.38
2018-05-23T01:42:12.738Z,101942.05
2018-05-23T01:44:39.516Z,101941.52
2018-05-23T01:47:07.033Z,101936.33
2018-05-23T01:49:33.905Z,101946.08
2018-05-23T01:52:00.995Z,101945.81
2018-05-23T01:54:27.771Z,101952.78
2018-05-23T01:56:54.632Z,101949.64
2018-05-23T01:59:21.609Z,101957.97
2018-05-23T02:01:48.467Z,101958.77
2018-05-23T02:04:15.253Z,101963.50
2018-05-23T02:06:42.344Z,101957.89
2018-05-23T02:09:09.140Z,101961.02
2018-05-23T02:11:35.940Z,101962.63
2018-05-23T02:14:02.957Z,101959.73
2018-05-23T02:16:29.749Z,101957.95
2018-05-23T02:18:56.568Z,101963.67
2018-05-23T02:21:23.401Z,101970.56
2018-05-23T02:23:50.185Z,101964.39
2018-05-23T02:26:17.089Z,101966.48
2018-05-23T02:28:43.916Z,101961.70
2018-05-23T02:31:10.743Z,101966.61
2018-05-23T02:33:37.525Z,101962.11
2018-05-23T02:36:04.304Z,101967.07
2018-05-23T02:38:31.215Z,101963.19
2018-05-23T02:40:58.006Z,101963.54
2018-05-23T02:43:25.204Z,101973.18
2018-05-23T02:45:51.988Z,101975.42
2018-05-23T02:48:19.519Z,101973.67
2018-05-23T02:50:46.413Z,101978.69
2018-05-23T02:53:13.205Z,101985.95
2018-05-23T02:55:40.045Z,101986.56
2018-05-23T02:58:06.832Z,101992.21
2018-05-23T03:00:34.357Z,102000.30
2018-05-23T03:03:08.073Z,101995.09
2018-05-23T03:05:34.860Z,102003.45
2018-05-23T03:08:01.653Z,102005.52
2018-05-23T03:10:28.480Z,102009.64
2018-05-23T03:12:55.257Z,102007.83
2018-05-23T03:15:22.374Z,102010.42
2018-05-23T03:17:49.155Z,102013.88
2018-05-23T03:20:16.693Z,102015.15
2018-05-23T03:22:43.548Z,102020.22
2018-05-23T03:25:10.324Z,102021.19
2018-05-23T03:27:37.253Z,102023.61
2018-05-23T03:30:04.914Z,102025.19
2018-05-23T03:32:32.792Z,102028.39
2018-05-23T03:35:00.301Z,102023.78
2018-05-23T03:37:27.829Z,102021.83
2018-05-23T03:39:54.724Z,102032.38
2018-05-23T03:42:21.492Z,102029.42
2018-05-23T03:44:49.061Z,102037.31
2018-05-23T03:47:16.609Z,102039.82
2018-05-23T03:49:44.124Z,102042.42
2018-05-23T03:52:11.993Z,102043.22
2018-05-23T03:54:38.774Z,102048.13
2018-05-23T03:57:06.639Z,102047.19
2018-05-23T03:59:51.984Z,102053.80
2018-05-23T04:02:38.033Z,102057.63
2018-05-23T04:05:24.412Z,102055.69
2018-05-23T04:07:51.204Z,102056.45
2018-05-23T04:10:17.980Z,102060.37
2018-05-23T04:12:45.120Z,102065.09
2018-05-23T04:15:11.891Z,102059.66
2018-05-23T04:17:38.668Z,102075.71
2018-05-23T04:20:05.856Z,102079.54
2018-05-23T04:22:32.614Z,102068.64
2018-05-23T04:24:59.474Z,102080.72
2018-05-23T04:27:26.588Z,102081.65
2018-05-23T04:29:53.406Z,102080.37
2018-05-23T04:32:20.187Z,102091.63
2018-05-23T04:34:47.013Z,102084.23
2018-05-23T04:37:13.851Z,102090.26
2018-05-23T04:39:40.633Z,102095.80
2018-05-23T04:42:07.470Z,102090.05
2018-05-23T04:44:34.249Z,102096.00
2018-05-23T04:47:01.045Z,102100.56
2018-05-23T04:49:28.028Z,102104.08
2018-05-23T04:51:55.561Z,102105.77
2018-05-23T04:54:22.341Z,102111.37
2018-05-23T04:56:49.178Z,102116.39
2018-05-23T04:59:15.976Z,102116.23
2018-05-23T05:01:43.599Z,102123.11
2018-05-23T05:04:10.396Z,102120.77
2018-05-23T05:06:37.175Z,102120.89
2018-05-23T05:09:05.025Z,102129.32
2018-05-23T05:11:32.661Z,102126.03
2018-05-23T05:13:59.538Z,102129.83
2018-05-23T05:16:27.061Z,102129.23
2018-05-23T05:18:53.885Z,102141.69
2018-05-23T05:21:20.666Z,102138.16
2018-05-23T05:23:48.412Z,102140.42
2018-05-23T05:26:16.016Z,102140.41
2018-05-23T05:28:43.583Z,102146.98
2018-05-23T05:31:11.241Z,102150.79
2018-05-23T05:33:38.799Z,102150.62
2018-05-23T05:36:06.320Z,102160.80
2018-05-23T05:38:33.229Z,102156.25
2018-05-23T05:41:00.004Z,102159.65
2018-05-23T05:43:29.835Z,102161.02
2018-05-23T05:45:56.664Z,102164.48
2018-05-23T05:48:23.504Z,102169.73
2018-05-23T05:50:50.341Z,102173.23
2018-05-23T05:53:23.336Z,102171.79
2018-05-23T05:55:50.172Z,102178.02
2018-05-23T05:58:16.969Z,102174.88
2018-05-23T06:00:44.479Z,102189.00
2018-05-23T06:03:12.156Z,102191.65
2018-05-23T06:05:38.959Z,102188.36
2018-05-23T06:08:05.741Z,102196.54
2018-05-23T06:10:38.741Z,102197.91
2018-05-23T06:13:11.524Z,102200.60
2018-05-23T06:15:38.426Z,102207.31
2018-05-23T06:18:05.604Z,102206.94
2018-05-23T06:20:32.383Z,102207.83
2018-05-23T06:23:05.221Z,102213.59
2018-05-23T06:25:32.040Z,102222.51
2018-05-23T06:27:59.222Z,102220.34
2018-05-23T06:30:26.380Z,102214.98
2018-05-23T06:32:53.172Z,102223.92
2018-05-23T06:35:20.740Z,102225.48
2018-05-23T06:37:47.551Z,102227.69
2018-05-23T06:40:14.427Z,102231.86
2018-05-23T06:42:41.206Z,102234.37
2018-05-23T06:45:08.033Z,102236.89
2018-05-23T06:47:34.800Z,102235.67
2018-05-23T06:50:01.622Z,102229.91
2018-05-23T06:52:29.236Z,102238.22
2018-05-23T06:54:56.752Z,102237.92
2018-05-23T06:57:23.524Z,102235.55
2018-05-23T06:59:50.656Z,102241.16
2018-05-23T07:02:17.435Z,102245.72
2018-05-23T07:04:44.275Z,102248.14
2018-05-23T07:07:11.272Z,102248.28
2018-05-23T07:09:38.060Z,102249.63
2018-05-23T07:12:04.953Z,102254.23
2018-05-23T07:14:32.040Z,102250.41
2018-05-23T07:16:58.920Z,102264.69
2018-05-23T07:19:26.796Z,102260.86
2018-05-23T07:21:53.607Z,102266.02
2018-05-23T07:24:20.384Z,102261.94
2018-05-23T07:26:47.172Z,102265.38
2018-05-23T07:29:14.044Z,102270.13
2018-05-23T07:31:40.847Z,102270.00
2018-05-23T07:34:07.926Z,102272.31
2018-05-23T07:36:34.752Z,102274.63
2018-05-23T07:39:01.540Z,102273.41
2018-05-23T07:41:28.383Z,102274.50
2018-05-23T07:43:55.944Z,102274.98
2018-05-23T07:46:23.521Z,102275.30
2018-05-23T07:48:50.299Z,102278.81
2018-05-23T07:51:17.126Z,102279.69
2018-05-23T07:53:44.696Z,102279.55
2018-05-23T07:56:11.526Z,102282.30
2018-05-23T07:58:38.346Z,102284.35
2018-05-23T08:01:05.203Z,102282.41
2018-05-23T08:03:32.972Z,102283.17
2018-05-23T08:06:00.565Z,102288.25
2018-05-23T08:08:27.389Z,102284.91
2018-05-23T08:10:54.183Z,102292.91
2018-05-23T08:13:26.055Z,102296.12
2018-05-23T08:15:53.570Z,102288.19
2018-05-23T08:18:21.396Z,102293.02
2018-05-23T08:20:48.280Z,102295.21
2018-05-23T08:23:21.076Z,102294.37
2018-05-23T08:25:47.913Z,102296.20
2018-05-23T08:28:14.732Z,102292.87
2018-05-23T08:30:42.420Z,102289.69
2018-05-23T08:33:09.196Z,102293.50
2018-05-23T08:35:36.718Z,102296.28
2018-05-23T08:38:03.572Z,102293.59
2018-05-23T08:40:30.352Z,102298.24
2018-05-23T08:42:57.387Z,102301.45
2018-05-23T08:45:24.893Z,102300.66
2018-05-23T08:47:51.676Z,102302.45
2018-05-23T08:50:18.534Z,102300.28
2018-05-23T08:52:46.050Z,102296.22
2018-05-23T08:55:13.657Z,102301.25
2018-05-23T08:57:41.218Z,102298.68
2018-05-23T09:00:08.041Z,102303.19
2018-05-23T09:02:34.820Z,102298.84
2018-05-23T09:05:02.605Z,102302.19
2018-05-23T09:07:29.457Z,102302.55
2018-05-23T09:09:56.248Z,102303.61
2018-05-23T09:12:23.090Z,102308.52
2018-05-23T09:14:50.625Z,102311.95
2018-05-23T09:17:17.408Z,102315.94
2018-05-23T09:19:44.348Z,102312.12
2018-05-23T09:22:11.868Z,102311.19
2018-05-23T09:24:38.682Z,102317.01
2018-05-23T09:27:05.519Z,102317.06
2018-05-23T09:29:32.313Z,102311.79
2018-05-23T09:31:59.154Z,102317.91
2018-05-23T09:34:26.185Z,102312.51
2018-05-23T09:36:52.965Z,102315.48
2018-05-23T09:39:19.740Z,102313.11
2018-05-23T09:41:46.548Z,102314.11
2018-05-23T09:44:14.123Z,102322.27
2018-05-23T09:46:41.681Z,102324.11
2018-05-23T09:49:09.248Z,102320.67
2018-05-23T09:51:36.765Z,102326.89
2018-05-23T09:54:03.611Z,102323.64
2018-05-23T09:56:30.456Z,102326.21
2018-05-23T09:58:57.285Z,102319.94
2018-05-23T10:01:24.090Z,102323.07
2018-05-23T10:03:57.031Z,102328.80
2018-05-23T10:06:24.633Z,102330.55
2018-05-23T10:08:51.508Z,102332.92
2018-05-23T10:11:18.348Z,102329.17
2018-05-23T10:13:45.156Z,102327.97
2018-05-23T10:16:11.976Z,102333.16
2018-05-23T10:18:38.750Z,102336.80
2018-05-23T10:21:05.577Z,102337.26
2018-05-23T10:23:32.404Z,102343.09
2018-05-23T10:25:59.192Z,102350.03
2018-05-23T10:28:25.992Z,102348.52
2018-05-23T10:30:52.953Z,102340.90
2018-05-23T10:33:25.927Z,102340.44
2018-05-23T10:35:52.820Z,102343.84
2018-05-23T10:38:19.649Z,102348.56
2018-05-23T10:40:47.164Z,102347.42
2018-05-23T10:43:19.928Z,102344.89
2018-05-23T10:45:47.508Z,102349.16
2018-05-23T10:48:14.356Z,102344.28
2018-05-23T10:50:41.135Z,102347.80
2018-05-23T10:53:13.885Z,102356.06
2018-05-23T10:55:40.951Z,102364.07
2018-05-23T10:58:07.780Z,102351.25
2018-05-23T11:00:34.564Z,102357.23
2018-05-23T11:03:07.529Z,102353.18
2018-05-23T11:05:34.366Z,102354.61
2018-05-23T11:08:01.128Z,102354.33
2018-05-23T11:10:28.340Z,102360.33
2018-05-23T11:12:55.116Z,102359.16
2018-05-23T11:15:22.671Z,102365.55
2018-05-23T11:17:49.468Z,102371.66
2018-05-23T11:20:16.237Z,102355.11
2018-05-23T11:22:43.120Z,102359.78
2018-05-23T11:25:10.661Z,102366.59
2018-05-23T11:27:37.441Z,102359.98
2018-05-23T11:30:04.584Z,102373.59
2018-05-23T11:32:31.375Z,102365.31
2018-05-23T11:34:58.260Z,102365.09
2018-05-23T11:37:25.086Z,102363.91
2018-05-23T11:39:52.603Z,102361.78
2018-05-23T11:42:19.429Z,102364.75
2018-05-23T11:44:46.232Z,102362.91
2018-05-23T11:47:13.087Z,102362.29
2018-05-23T11:49:40.643Z,102357.72
2018-05-23T11:52:08.179Z,102360.80
2018-05-23T11:54:41.061Z,102357.91
2018-05-23T11:57:07.823Z,102348.50
2018-05-23T11:59:34.693Z,102354.30
2018-05-23T12:02:01.487Z,102353.16
2018-05-23T12:04:28.264Z,102358.63
2018-05-23T12:06:55.828Z,102357.72
2018-05-23T12:09:28.492Z,102346.77
2018-05-23T12:11:55.524Z,102349.94
2018-05-23T12:14:22.300Z,102348.31
2018-05-23T12:16:49.804Z,102345.36
2018-05-23T12:19:16.637Z,102353.13
2018-05-23T12:21:43.418Z,102352.08
2018-05-23T12:24:10.256Z,102359.47
2018-05-23T12:26:37.085Z,102348.30
2018-05-23T12:29:04.001Z,102354.46
2018-05-23T12:31:30.792Z,102347.92
2018-05-23T12:33:57.631Z,102351.69
2018-05-23T12:36:24.464Z,102356.14
2018-05-23T12:38:51.292Z,102358.59
2018-05-23T12:41:18.068Z,102362.39
2018-05-23T12:43:44.848Z,102356.50
2018-05-23T12:46:12.790Z,102348.54
2018-05-23T12:48:39.627Z,102349.73
2018-05-23T12:51:06.427Z,102344.16
2018-05-23T12:53:33.902Z,102353.61
2018-05-23T12:56:05.515Z,102359.03
2018-05-23T12:58:33.391Z,102352.11
2018-05-23T13:01:00.233Z,102354.98
2018-05-23T13:03:33.180Z,102346.69
2018-05-23T13:05:59.971Z,102343.77
2018-05-23T13:08:26.800Z,102353.45
2018-05-23T13:10:54.316Z,102358.36
2018-05-23T13:13:27.073Z,102353.89
2018-05-23T13:15:53.936Z,102351.28
2018-05-23T13:18:20.709Z,102341.83
2018-05-23T13:20:47.535Z,102344.24
2018-05-23T13:23:20.301Z,102343.31
2018-05-23T13:25:48.090Z,102341.14
2018-05-23T13:28:14.876Z,102341.83
2018-05-23T13:30:41.713Z,102338.52
2018-05-23T13:33:14.647Z,102346.91
2018-05-23T13:35:41.449Z,102341.27
2018-05-23T13:38:08.361Z,102345.41
2018-05-23T13:40:35.583Z,102344.80
2018-05-23T13:43:02.378Z,102346.44
2018-05-23T13:45:29.935Z,102341.98
2018-05-23T13:47:57.504Z,102340.67
2018-05-23T13:50:24.332Z,102338.05
2018-05-23T13:52:51.858Z,102334.86
2018-05-23T13:55:18.697Z,102331.83
2018-05-23T13:57:45.492Z,102325.11
2018-05-23T14:00:13.016Z,102324.44
2018-05-23T14:02:39.888Z,102317.12
2018-05-23T14:05:07.817Z,102311.47
2018-05-23T14:07:34.639Z,102312.41
2018-05-23T14:10:01.424Z,102323.58
2018-05-23T14:12:28.253Z,102320.95
2018-05-23T14:14:55.153Z,102312.46
2018-05-23T14:17:21.975Z,102314.34
2018-05-23T14:19:49.520Z,102309.38
2018-05-23T14:22:16.335Z,102310.15
2018-05-23T14:24:43.131Z,102310.63
2018-05-23T14:27:09.976Z,102320.27
2018-05-23T14:29:36.807Z,102308.84
2018-05-23T14:32:04.384Z,102304.80
2018-05-23T14:34:31.169Z,102310.25
2018-05-23T14:36:57.999Z,102296.54
2018-05-23T14:39:25.656Z,102297.50
2018-05-23T14:41:52.473Z,102304.07
2018-05-23T14:44:20.015Z,102306.91
2018-05-23T14:46:47.033Z,102304.73
2018-05-23T14:49:13.804Z,102299.17
2018-05-23T14:51:40.680Z,102297.41
2018-05-23T14:54:07.876Z,102299.84
2018-05-23T14:56:34.684Z,102297.05
2018-05-23T14:59:02.236Z,102300.63
2018-05-23T15:01:29.065Z,102303.72
2018-05-23T15:03:55.953Z,102301.06
2018-05-23T15:06:22.739Z,102302.13
2018-05-23T15:08:50.251Z,102304.95
2018-05-23T15:11:17.125Z,102309.94
2018-05-23T15:13:43.933Z,102310.06
2018-05-23T15:16:11.106Z,102303.09
2018-05-23T15:18:37.889Z,102313.80
2018-05-23T15:21:05.426Z,102312.52
2018-05-23T15:23:32.259Z,102302.39
2018-05-23T15:25:59.069Z,102307.84
2018-05-23T15:28:25.900Z,102308.47
2018-05-23T15:30:52.759Z,102305.06
2018-05-23T15:33:25.769Z,102301.13
2018-05-23T15:35:52.556Z,102309.75
2018-05-23T15:38:20.127Z,102307.58
2018-05-23T15:40:47.010Z,102311.12
2018-05-23T15:43:19.976Z,102311.65
2018-05-23T15:45:46.759Z,102314.84
2018-05-23T15:48:13.566Z,102312.77
2018-05-23T15:50:40.540Z,102316.95
2018-05-23T15:53:13.444Z,102322.94
2018-05-23T15:55:40.513Z,102318.21
2018-05-23T15:58:08.367Z,102319.44
2018-05-23T16:00:35.170Z,102329.93
2018-05-23T16:03:02.221Z,102325.66
2018-05-23T16:05:29.856Z,102325.20
2018-05-23T16:07:56.651Z,102324.86
2018-05-23T16:10:23.510Z,102322.98
2018-05-23T16:12:50.302Z,102315.03
2018-05-23T16:15:17.381Z,102322.57
2018-05-23T16:17:44.255Z,102317.49
2018-05-23T16:20:11.816Z,102314.78
2018-05-23T16:22:39.343Z,102316.06
2018-05-23T16:25:06.168Z,102309.33
2018-05-23T16:27:33.010Z,102312.25
2018-05-23T16:29:59.854Z,102316.83
2018-05-23T16:32:26.663Z,102306.67
2018-05-23T16:34:54.244Z,102312.41
2018-05-23T16:37:21.087Z,102311.83
2018-05-23T16:39:47.869Z,102298.13
2018-05-23T16:42:14.731Z,102306.70
2018-05-23T16:44:41.560Z,102301.86
2018-05-23T16:47:08.345Z,102307.48
2018-05-23T16:49:35.133Z,102303.53
2018-05-23T16:52:01.974Z,102305.83
2018-05-23T16:54:28.843Z,102304.80
2018-05-23T16:56:55.674Z,102302.33
2018-05-23T16:59:22.463Z,102308.13
2018-05-23T17:01:50.032Z,102311.36
2018-05-23T17:04:16.820Z,102306.39
2018-05-23T17:06:43.868Z,102308.14
2018-05-23T17:09:10.692Z,102314.73
2018-05-23T17:11:37.499Z,102311.55
2018-05-23T17:14:05.217Z,102318.72
2018-05-23T17:16:32.040Z,102319.84
2018-05-23T17:18:59.623Z,102328.92
2018-05-23T17:21:26.456Z,102323.72
2018-05-23T17:23:53.275Z,102325.19
2018-05-23T17:26:20.044Z,102329.26
2018-05-23T17:28:47.134Z,102327.58
2018-05-23T17:31:13.972Z,102330.00
2018-05-23T17:33:40.816Z,102330.95
2018-05-23T17:36:08.408Z,102337.03
2018-05-23T17:38:35.203Z,102327.93
2018-05-23T17:41:01.992Z,102338.34
2018-05-23T17:43:28.914Z,102337.58
2018-05-23T17:45:55.769Z,102334.27
2018-05-23T17:48:22.698Z,102338.39
2018-05-23T17:50:50.232Z,102352.88
2018-05-23T17:53:22.915Z,102356.14
2018-05-23T17:55:49.824Z,102342.48
2018-05-23T17:58:16.865Z,102365.53
2018-05-23T18:00:43.791Z,102352.86
2018-05-23T18:03:16.458Z,102360.46
2018-05-23T18:05:43.284Z,102356.90
2018-05-23T18:08:10.100Z,102371.02
2018-05-23T18:10:36.875Z,102356.93
2018-05-23T18:13:03.705Z,102354.83
2018-05-23T18:15:30.676Z,102362.78
2018-05-23T18:17:57.889Z,102355.44
2018-05-23T18:20:24.893Z,102356.48
2018-05-23T18:22:51.623Z,102362.22
2018-05-23T18:25:18.435Z,102354.36
2018-05-23T18:27:45.490Z,102361.96
2018-05-23T18:30:12.307Z,102361.39
2018-05-23T18:32:39.895Z,102360.59
2018-05-23T18:35:06.733Z,102363.98
2018-05-23T18:37:33.598Z,102367.64
2018-05-23T18:40:00.431Z,102379.19
2018-05-23T18:42:27.466Z,102376.22
2018-05-23T18:44:55.099Z,102378.42
2018-05-23T18:47:21.873Z,102378.47
2018-05-23T18:49:48.643Z,102383.66
2018-05-23T18:52:15.468Z,102380.48
2018-05-23T18:54:42.264Z,102388.67
2018-05-23T18:57:09.171Z,102389.24
2018-05-23T18:59:36.199Z,102387.88
2018-05-23T19:02:03.001Z,102397.83
2018-05-23T19:04:30.047Z,102398.22
2018-05-23T19:06:57.162Z,102401.60
2018-05-23T19:09:24.003Z,102400.84
2018-05-23T19:11:51.096Z,102405.38
2018-05-23T19:14:18.101Z,102413.94
2018-05-23T19:16:44.896Z,102405.20
2018-05-23T19:19:11.680Z,102410.55
2018-05-23T19:21:38.725Z,102416.09
2018-05-23T19:24:05.536Z,102414.48
2018-05-23T19:26:32.472Z,102415.29
2018-05-23T19:29:00.223Z,102419.02
2018-05-23T19:31:27.001Z,102422.59
2018-05-23T19:33:56.891Z,102426.74
2018-05-23T19:36:23.979Z,102435.02
2018-05-23T19:38:50.772Z,102438.03
2018-05-23T19:41:18.396Z,102448.13
2018-05-23T19:43:51.127Z,102450.68
2018-05-23T19:46:18.018Z,102449.48
2018-05-23T19:48:44.804Z,102451.02
2018-05-23T19:51:12.532Z,102454.38
2018-05-23T19:53:45.266Z,102460.30
2018-05-23T19:56:12.140Z,102458.90
2018-05-23T19:58:40.021Z,102461.02
2018-05-23T20:01:06.804Z,102461.39
2018-05-23T20:03:39.735Z,102462.88
2018-05-23T20:06:06.562Z,102471.56
2018-05-23T20:08:33.347Z,102461.84
2018-05-23T20:11:00.204Z,102464.55
2018-05-23T20:13:33.014Z,102471.89
2018-05-23T20:15:59.790Z,102464.07
2018-05-23T20:18:27.000Z,102463.87
2018-05-23T20:20:53.788Z,102462.23
2018-05-23T20:23:26.576Z,102470.75
2018-05-23T20:25:53.419Z,102469.64
2018-05-23T20:28:21.713Z,102468.27
2018-05-23T20:30:48.552Z,102470.55
2018-05-23T20:33:21.556Z,102480.84
2018-05-23T20:35:48.484Z,102479.20
2018-05-23T20:38:15.421Z,102484.94
2018-05-23T20:40:48.241Z,102477.31
2018-05-23T20:43:21.167Z,102476.05
2018-05-23T20:45:48.047Z,102481.94
2018-05-23T20:48:14.836Z,102480.72
2018-05-23T20:50:41.707Z,102485.20
2018-05-23T20:53:08.541Z,102482.62
2018-05-23T20:55:35.340Z,102484.18
2018-05-23T20:58:02.928Z,102481.47
2018-05-23T21:00:30.143Z,102485.84
2018-05-23T21:02:56.915Z,102485.81
2018-05-23T21:05:24.656Z,102489.89
2018-05-23T21:07:51.470Z,102481.90
2018-05-23T21:10:19.048Z,102481.66
2018-05-23T21:12:45.983Z,102483.40
2018-05-23T21:15:12.797Z,102487.87
2018-05-23T21:17:39.584Z,102490.09
2018-05-23T21:20:06.529Z,102492.79
2018-05-23T21:22:33.348Z,102498.27
2018-05-23T21:25:00.140Z,102491.69
2018-05-23T21:27:27.713Z,102496.44
2018-05-23T21:29:55.227Z,102499.95
2018-05-23T21:32:22.015Z,102500.35
2018-05-23T21:34:48.892Z,102503.52
2018-05-23T21:37:15.744Z,102508.35
2018-05-23T21:39:42.523Z,102509.55
2018-05-23T21:42:09.357Z,102511.37
2018-05-23T21:44:36.130Z,102512.72
2018-05-23T21:47:03.085Z,102506.48
2018-05-23T21:49:29.911Z,102502.98
2018-05-23T21:51:57.430Z,102504.88
2018-05-23T21:54:24.996Z,102505.23
2018-05-23T21:56:51.828Z,102504.80
2018-05-23T21:59:19.407Z,102505.92
2018-05-23T22:01:46.204Z,102504.25
2018-05-23T22:04:19.139Z,102511.71
2018-05-23T22:06:45.924Z,102508.61
2018-05-23T22:09:12.709Z,102504.77
2018-05-23T22:11:40.317Z,102505.25
2018-05-23T22:14:07.845Z,102511.23
2018-05-23T22:16:34.615Z,102505.15
2018-05-23T22:19:02.199Z,102506.27
2018-05-23T22:21:28.984Z,102507.18
2018-05-23T22:24:01.928Z,102518.74
2018-05-23T22:26:28.864Z,102507.48
2018-05-23T22:28:56.421Z,102509.34
2018-05-23T22:31:24.303Z,102511.78
2018-05-23T22:33:51.140Z,102508.06
2018-05-23T22:36:18.084Z,102508.71
2018-05-23T22:38:45.616Z,102506.02
2018-05-23T22:41:12.534Z,102510.33
2018-05-23T22:43:39.313Z,102509.42
2018-05-23T22:46:06.105Z,102511.33
2018-05-23T22:48:33.741Z,102509.13
2018-05-23T22:51:00.520Z,102504.96
2018-05-23T22:53:29.332Z,102502.76
2018-05-23T22:55:56.172Z,102501.84
2018-05-23T22:58:22.980Z,102500.09
2018-05-23T23:00:49.803Z,102507.59
2018-05-23T23:03:22.645Z,102513.38
2018-05-23T23:05:49.427Z,102515.20
2018-05-23T23:08:16.948Z,102511.25
2018-05-23T23:10:43.858Z,102511.17
2018-05-23T23:13:10.703Z,102505.77
2018-05-23T23:15:37.480Z,102502.28
2018-05-23T23:18:04.352Z,102504.13
2018-05-23T23:20:31.895Z,102513.58
2018-05-23T23:22:58.686Z,102513.73
2018-05-23T23:25:25.612Z,102515.28
2018-05-23T23:27:53.148Z,102504.83
2018-05-23T23:30:20.680Z,102511.97
2018-05-23T23:32:47.512Z,102518.25
2018-05-23T23:35:14.293Z,102522.31
2018-05-23T23:37:41.152Z,102520.84
2018-05-23T23:40:08.724Z,102519.30
2018-05-23T23:42:36.241Z,102519.00
2018-05-23T23:45:03.068Z,102519.81
2018-05-23T23:47:29.924Z,102525.05
2018-05-23T23:49:56.797Z,102525.66
2018-05-23T23:52:23.576Z,102522.59
2018-05-23T23:54:50.409Z,102522.73
2018-05-23T23:57:17.200Z,102525.13
2018-05-23T23:59:43.990Z,102524.34
